METAR Data
IDs: Format: Raw Decoded Include TAF

Data at: 0631 UTC 24 Sep 2020

METAR for:K6B9 (Skaneateles Arpt, NY, US)
Text:K6B9 240615Z AUTO 25003KT 10SM CLR 14/12 A2995 RMK AO2
Temperature: 14.0°C ( 57°F)
Dewpoint: 12.0°C ( 54°F) [RH = 88%]
Pressure (altimeter):29.95 inches Hg (1014.3 mb)
Winds:from the WSW (250 degrees) at 3 MPH (3 knots; 1.5 m/s)
Visibility:10 or more sm (16+ km)
Ceiling:at least 12,000 feet AGL
Clouds:sky clear below 12,000 feet AGL
QC Flag:automated observation with no human augmentation
Text:K6B9 240555Z AUTO 25004KT 14/12 A2995 RMK AO2
Temperature: 14.0°C ( 57°F)
Dewpoint: 12.0°C ( 54°F) [RH = 88%]
Pressure (altimeter):29.95 inches Hg (1014.3 mb)
Winds:from the WSW (250 degrees) at 5 MPH (4 knots; 2.1 m/s)
QC Flag:automated observation with no human augmentation
Text:K6B9 240535Z AUTO 24004KT 10SM CLR 14/12 A2995 RMK AO2
Temperature: 14.0°C ( 57°F)
Dewpoint: 12.0°C ( 54°F) [RH = 88%]
Pressure (altimeter):29.95 inches Hg (1014.3 mb)
Winds:from the WSW (240 degrees) at 5 MPH (4 knots; 2.1 m/s)
Visibility:10 or more sm (16+ km)
Ceiling:at least 12,000 feet AGL
Clouds:sky clear below 12,000 feet AGL
QC Flag:automated observation with no human augmentation
Text:K6B9 240515Z AUTO 25003KT 10SM CLR 15/12 A2994 RMK AO2
Temperature: 15.0°C ( 59°F)
Dewpoint: 12.0°C ( 54°F) [RH = 82%]
Pressure (altimeter):29.94 inches Hg (1014.0 mb)
Winds:from the WSW (250 degrees) at 3 MPH (3 knots; 1.5 m/s)
Visibility:10 or more sm (16+ km)
Ceiling:at least 12,000 feet AGL
Clouds:sky clear below 12,000 feet AGL
QC Flag:automated observation with no human augmentation
Text:K6B9 240455Z AUTO 26004KT 10SM CLR 15/13 A2994 RMK AO2
Temperature: 15.0°C ( 59°F)
Dewpoint: 13.0°C ( 55°F) [RH = 88%]
Pressure (altimeter):29.94 inches Hg (1014.0 mb)
Winds:from the W (260 degrees) at 5 MPH (4 knots; 2.1 m/s)
Visibility:10 or more sm (16+ km)
Ceiling:at least 12,000 feet AGL
Clouds:sky clear below 12,000 feet AGL
QC Flag:automated observation with no human augmentation
Text:K6B9 240435Z AUTO 25004KT 10SM CLR 15/12 A2995 RMK AO2
Temperature: 15.0°C ( 59°F)
Dewpoint: 12.0°C ( 54°F) [RH = 82%]
Pressure (altimeter):29.95 inches Hg (1014.3 mb)
Winds:from the WSW (250 degrees) at 5 MPH (4 knots; 2.1 m/s)
Visibility:10 or more sm (16+ km)
Ceiling:at least 12,000 feet AGL
Clouds:sky clear below 12,000 feet AGL
QC Flag:automated observation with no human augmentation
Text:K6B9 240415Z AUTO 26004KT 10SM CLR 14/12 A2995 RMK AO2
Temperature: 14.0°C ( 57°F)
Dewpoint: 12.0°C ( 54°F) [RH = 88%]
Pressure (altimeter):29.95 inches Hg (1014.3 mb)
Winds:from the W (260 degrees) at 5 MPH (4 knots; 2.1 m/s)
Visibility:10 or more sm (16+ km)
Ceiling:at least 12,000 feet AGL
Clouds:sky clear below 12,000 feet AGL
QC Flag:automated observation with no human augmentation
Text:K6B9 240355Z AUTO 00000KT 10SM CLR 13/12 A2995 RMK AO2
Temperature: 13.0°C ( 55°F)
Dewpoint: 12.0°C ( 54°F) [RH = 94%]
Pressure (altimeter):29.95 inches Hg (1014.3 mb)
Winds:calm
Visibility:10 or more sm (16+ km)
Ceiling:at least 12,000 feet AGL
Clouds:sky clear below 12,000 feet AGL
QC Flag:automated observation with no human augmentation
Text:K6B9 240335Z AUTO 00000KT 10SM CLR 13/12 A2995 RMK AO2
Temperature: 13.0°C ( 55°F)
Dewpoint: 12.0°C ( 54°F) [RH = 94%]
Pressure (altimeter):29.95 inches Hg (1014.3 mb)
Winds:calm
Visibility:10 or more sm (16+ km)
Ceiling:at least 12,000 feet AGL
Clouds:sky clear below 12,000 feet AGL
QC Flag:automated observation with no human augmentation
Text:K6B9 240315Z AUTO 00000KT 10SM CLR 14/12 A2994 RMK AO2
Temperature: 14.0°C ( 57°F)
Dewpoint: 12.0°C ( 54°F) [RH = 88%]
Pressure (altimeter):29.94 inches Hg (1014.0 mb)
Winds:calm
Visibility:10 or more sm (16+ km)
Ceiling:at least 12,000 feet AGL
Clouds:sky clear below 12,000 feet AGL
QC Flag:automated observation with no human augmentation
Text:K6B9 240255Z AUTO 00000KT 10SM CLR 15/12 A2994 RMK AO2
Temperature: 15.0°C ( 59°F)
Dewpoint: 12.0°C ( 54°F) [RH = 82%]
Pressure (altimeter):29.94 inches Hg (1014.0 mb)
Winds:calm
Visibility:10 or more sm (16+ km)
Ceiling:at least 12,000 feet AGL
Clouds:sky clear below 12,000 feet AGL
QC Flag:automated observation with no human augmentation
Text:K6B9 240235Z AUTO 00000KT 10SM CLR 15/11 A2995 RMK AO2
Temperature: 15.0°C ( 59°F)
Dewpoint: 11.0°C ( 52°F) [RH = 77%]
Pressure (altimeter):29.95 inches Hg (1014.3 mb)
Winds:calm
Visibility:10 or more sm (16+ km)
Ceiling:at least 12,000 feet AGL
Clouds:sky clear below 12,000 feet AGL
QC Flag:automated observation with no human augmentation
Text:K6B9 240215Z AUTO 00000KT 10SM CLR 16/11 A2995 RMK AO2
Temperature: 16.0°C ( 61°F)
Dewpoint: 11.0°C ( 52°F) [RH = 72%]
Pressure (altimeter):29.95 inches Hg (1014.3 mb)
Winds:calm
Visibility:10 or more sm (16+ km)
Ceiling:at least 12,000 feet AGL
Clouds:sky clear below 12,000 feet AGL
QC Flag:automated observation with no human augmentation
Text:K6B9 240155Z AUTO 00000KT 10SM CLR 14/11 A2995 RMK AO2
Temperature: 14.0°C ( 57°F)
Dewpoint: 11.0°C ( 52°F) [RH = 82%]
Pressure (altimeter):29.95 inches Hg (1014.3 mb)
Winds:calm
Visibility:10 or more sm (16+ km)
Ceiling:at least 12,000 feet AGL
Clouds:sky clear below 12,000 feet AGL
QC Flag:automated observation with no human augmentation
Text:K6B9 240135Z AUTO 00000KT 10SM FEW040 13/11 A2995 RMK AO2
Temperature: 13.0°C ( 55°F)
Dewpoint: 11.0°C ( 52°F) [RH = 88%]
Pressure (altimeter):29.95 inches Hg (1014.3 mb)
Winds:calm
Visibility:10 or more sm (16+ km)
Ceiling:at least 12,000 feet AGL
Clouds: few clouds at 4000 feet AGL
QC Flag:automated observation with no human augmentation
Text:K6B9 240115Z AUTO 25003KT 10SM CLR 13/11 A2995 RMK AO2
Temperature: 13.0°C ( 55°F)
Dewpoint: 11.0°C ( 52°F) [RH = 88%]
Pressure (altimeter):29.95 inches Hg (1014.3 mb)
Winds:from the WSW (250 degrees) at 3 MPH (3 knots; 1.5 m/s)
Visibility:10 or more sm (16+ km)
Ceiling:at least 12,000 feet AGL
Clouds:sky clear below 12,000 feet AGL
QC Flag:automated observation with no human augmentation
Text:K6B9 240055Z AUTO 25003KT 10SM FEW042 13/11 A2994 RMK AO2
Temperature: 13.0°C ( 55°F)
Dewpoint: 11.0°C ( 52°F) [RH = 88%]
Pressure (altimeter):29.94 inches Hg (1014.0 mb)
Winds:from the WSW (250 degrees) at 3 MPH (3 knots; 1.5 m/s)
Visibility:10 or more sm (16+ km)
Ceiling:at least 12,000 feet AGL
Clouds: few clouds at 4200 feet AGL
QC Flag:automated observation with no human augmentation
Text:K6B9 240035Z AUTO 00000KT 10SM FEW042 14/12 A2994 RMK AO2
Temperature: 14.0°C ( 57°F)
Dewpoint: 12.0°C ( 54°F) [RH = 88%]
Pressure (altimeter):29.94 inches Hg (1014.0 mb)
Winds:calm
Visibility:10 or more sm (16+ km)
Ceiling:at least 12,000 feet AGL
Clouds: few clouds at 4200 feet AGL
QC Flag:automated observation with no human augmentation
Text:K6B9 240015Z AUTO 00000KT 10SM CLR 13/11 A2993 RMK AO2
Temperature: 13.0°C ( 55°F)
Dewpoint: 11.0°C ( 52°F) [RH = 88%]
Pressure (altimeter):29.93 inches Hg (1013.6 mb)
Winds:calm
Visibility:10 or more sm (16+ km)
Ceiling:at least 12,000 feet AGL
Clouds:sky clear below 12,000 feet AGL
QC Flag:automated observation with no human augmentation
Text:K6B9 232355Z AUTO 00000KT 10SM CLR 14/11 A2993 RMK AO2
Temperature: 14.0°C ( 57°F)
Dewpoint: 11.0°C ( 52°F) [RH = 82%]
Pressure (altimeter):29.93 inches Hg (1013.6 mb)
Winds:calm
Visibility:10 or more sm (16+ km)
Ceiling:at least 12,000 feet AGL
Clouds:sky clear below 12,000 feet AGL
QC Flag:automated observation with no human augmentation
Text:K6B9 232335Z AUTO 25003KT 10SM CLR 16/10 A2993 RMK AO2
Temperature: 16.0°C ( 61°F)
Dewpoint: 10.0°C ( 50°F) [RH = 68%]
Pressure (altimeter):29.93 inches Hg (1013.6 mb)
Winds:from the WSW (250 degrees) at 3 MPH (3 knots; 1.5 m/s)
Visibility:10 or more sm (16+ km)
Ceiling:at least 12,000 feet AGL
Clouds:sky clear below 12,000 feet AGL
QC Flag:automated observation with no human augmentation
Text:K6B9 232315Z AUTO 00000KT 10SM CLR 17/11 A2993 RMK AO2
Temperature: 17.0°C ( 63°F)
Dewpoint: 11.0°C ( 52°F) [RH = 68%]
Pressure (altimeter):29.93 inches Hg (1013.6 mb)
Winds:calm
Visibility:10 or more sm (16+ km)
Ceiling:at least 12,000 feet AGL
Clouds:sky clear below 12,000 feet AGL
QC Flag:automated observation with no human augmentation
Text:K6B9 232255Z AUTO 00000KT 10SM CLR 18/11 A2992 RMK AO2
Temperature: 18.0°C ( 64°F)
Dewpoint: 11.0°C ( 52°F) [RH = 64%]
Pressure (altimeter):29.92 inches Hg (1013.3 mb)
Winds:calm
Visibility:10 or more sm (16+ km)
Ceiling:at least 12,000 feet AGL
Clouds:sky clear below 12,000 feet AGL
QC Flag:automated observation with no human augmentation
Text:K6B9 232235Z AUTO 00000KT 10SM CLR 19/12 A2992 RMK AO2
Temperature: 19.0°C ( 66°F)
Dewpoint: 12.0°C ( 54°F) [RH = 64%]
Pressure (altimeter):29.92 inches Hg (1013.3 mb)
Winds:calm
Visibility:10 or more sm (16+ km)
Ceiling:at least 12,000 feet AGL
Clouds:sky clear below 12,000 feet AGL
QC Flag:automated observation with no human augmentation
Text:K6B9 232215Z AUTO 00000KT 10SM CLR 20/12 A2992 RMK AO2
Temperature: 20.0°C ( 68°F)
Dewpoint: 12.0°C ( 54°F) [RH = 60%]
Pressure (altimeter):29.92 inches Hg (1013.3 mb)
Winds:calm
Visibility:10 or more sm (16+ km)
Ceiling:at least 12,000 feet AGL
Clouds:sky clear below 12,000 feet AGL
QC Flag:automated observation with no human augmentation
Text:K6B9 232155Z AUTO 00000KT 10SM CLR 21/12 A2992 RMK AO2
Temperature: 21.0°C ( 70°F)
Dewpoint: 12.0°C ( 54°F) [RH = 56%]
Pressure (altimeter):29.92 inches Hg (1013.3 mb)
Winds:calm
Visibility:10 or more sm (16+ km)
Ceiling:at least 12,000 feet AGL
Clouds:sky clear below 12,000 feet AGL
QC Flag:automated observation with no human augmentation
Text:K6B9 232135Z AUTO VRB06G11KT 10SM CLR 21/12 A2991 RMK AO2
Temperature: 21.0°C ( 70°F)
Dewpoint: 12.0°C ( 54°F) [RH = 56%]
Pressure (altimeter):29.91 inches Hg (1013.0 mb)
Winds:variable direction winds at 7 MPH (6 knots; 3.1 m/s) gusting to 13 MPH (11 knots; 5.7 m/s)
Visibility:10 or more sm (16+ km)
Ceiling:at least 12,000 feet AGL
Clouds:sky clear below 12,000 feet AGL
QC Flag:automated observation with no human augmentation
Text:K6B9 232115Z AUTO VRB04G10KT 10SM CLR 22/13 A2991 RMK AO2
Temperature: 22.0°C ( 72°F)
Dewpoint: 13.0°C ( 55°F) [RH = 57%]
Pressure (altimeter):29.91 inches Hg (1013.0 mb)
Winds:variable direction winds at 5 MPH (4 knots; 2.1 m/s) gusting to 12 MPH (10 knots; 5.1 m/s)
Visibility:10 or more sm (16+ km)
Ceiling:at least 12,000 feet AGL
Clouds:sky clear below 12,000 feet AGL
QC Flag:automated observation with no human augmentation
Text:K6B9 232055Z AUTO VRB04G11KT 10SM CLR 23/13 A2990 RMK AO2
Temperature: 23.0°C ( 73°F)
Dewpoint: 13.0°C ( 55°F) [RH = 53%]
Pressure (altimeter):29.90 inches Hg (1012.6 mb)
Winds:variable direction winds at 5 MPH (4 knots; 2.1 m/s) gusting to 13 MPH (11 knots; 5.7 m/s)
Visibility:10 or more sm (16+ km)
Ceiling:at least 12,000 feet AGL
Clouds:sky clear below 12,000 feet AGL
QC Flag:automated observation with no human augmentation
Text:K6B9 232035Z AUTO 30007KT 240V340 10SM CLR 23/13 A2990 RMK AO2
Temperature: 23.0°C ( 73°F)
Dewpoint: 13.0°C ( 55°F) [RH = 53%]
Pressure (altimeter):29.90 inches Hg (1012.6 mb)
Winds:from the WNW (300 degrees) at 8 MPH (7 knots; 3.6 m/s)
Visibility:10 or more sm (16+ km)
Ceiling:at least 12,000 feet AGL
Clouds:sky clear below 12,000 feet AGL
QC Flag:automated observation with no human augmentation
Text:K6B9 232015Z AUTO VRB05G14KT 10SM CLR 23/12 A2990 RMK AO2
Temperature: 23.0°C ( 73°F)
Dewpoint: 12.0°C ( 54°F) [RH = 50%]
Pressure (altimeter):29.90 inches Hg (1012.6 mb)
Winds:variable direction winds at 6 MPH (5 knots; 2.6 m/s) gusting to 16 MPH (14 knots; 7.2 m/s)
Visibility:10 or more sm (16+ km)
Ceiling:at least 12,000 feet AGL
Clouds:sky clear below 12,000 feet AGL
QC Flag:automated observation with no human augmentation
Text:K6B9 231955Z AUTO VRB07KT 220V320 9SM CLR 23/12 A2990 RMK AO2
Temperature: 23.0°C ( 73°F)
Dewpoint: 12.0°C ( 54°F) [RH = 50%]
Pressure (altimeter):29.90 inches Hg (1012.6 mb)
Winds:variable direction winds at 8 MPH (7 knots; 3.6 m/s)
Visibility: 9 sm ( 14 km)
Ceiling:at least 12,000 feet AGL
Clouds:sky clear below 12,000 feet AGL
QC Flag:automated observation with no human augmentation
Text:K6B9 231935Z AUTO VRB04G12KT 10SM FEW045 FEW050 23/12 A2990 RMK AO2
Temperature: 23.0°C ( 73°F)
Dewpoint: 12.0°C ( 54°F) [RH = 50%]
Pressure (altimeter):29.90 inches Hg (1012.6 mb)
Winds:variable direction winds at 5 MPH (4 knots; 2.1 m/s) gusting to 14 MPH (12 knots; 6.2 m/s)
Visibility:10 or more sm (16+ km)
Ceiling:at least 12,000 feet AGL
Clouds: few clouds at 4500 feet AGL, few clouds at 5000 feet AGL
QC Flag:automated observation with no human augmentation
Text:K6B9 231915Z AUTO 28006G12KT 10SM FEW045 23/12 A2990 RMK AO2
Temperature: 23.0°C ( 73°F)
Dewpoint: 12.0°C ( 54°F) [RH = 50%]
Pressure (altimeter):29.90 inches Hg (1012.6 mb)
Winds:from the W (280 degrees) at 7 MPH (6 knots; 3.1 m/s) gusting to 14 MPH (12 knots; 6.2 m/s)
Visibility:10 or more sm (16+ km)
Ceiling:at least 12,000 feet AGL
Clouds: few clouds at 4500 feet AGL
QC Flag:automated observation with no human augmentation
Text:K6B9 231855Z AUTO 30006G11KT 10SM FEW045 22/13 A2991 RMK AO2
Temperature: 22.0°C ( 72°F)
Dewpoint: 13.0°C ( 55°F) [RH = 57%]
Pressure (altimeter):29.91 inches Hg (1013.0 mb)
Winds:from the WNW (300 degrees) at 7 MPH (6 knots; 3.1 m/s) gusting to 13 MPH (11 knots; 5.7 m/s)
Visibility:10 or more sm (16+ km)
Ceiling:at least 12,000 feet AGL
Clouds: few clouds at 4500 feet AGL
QC Flag:automated observation with no human augmentation
Text:K6B9 231835Z AUTO 29008G14KT 250V320 10SM BKN042 BKN047 23/12 A2991 RMK AO2
Temperature: 23.0°C ( 73°F)
Dewpoint: 12.0°C ( 54°F) [RH = 50%]
Pressure (altimeter):29.91 inches Hg (1013.0 mb)
Winds:from the WNW (290 degrees) at 9 MPH (8 knots; 4.1 m/s) gusting to 16 MPH (14 knots; 7.2 m/s)
Visibility:10 or more sm (16+ km)
Ceiling:4200 feet AGL
Clouds: broken clouds at 4200 feet AGL, broken clouds at 4700 feet AGL
QC Flag:automated observation with no human augmentation